createdAt,value
2023-05-05T00:02:22.806Z,5.25
2023-05-05T00:04:50.056Z,4.60
2023-05-05T00:07:17.183Z,4.78
2023-05-05T00:09:44.721Z,4.93
2023-05-05T00:12:11.869Z,4.65
2023-05-05T00:14:39.005Z,5.13
2023-05-05T00:17:06.181Z,4.68
2023-05-05T00:19:33.404Z,4.47
2023-05-05T00:22:00.756Z,4.50
2023-05-05T00:24:28.019Z,5.00
2023-05-05T00:26:55.286Z,4.70
2023-05-05T00:29:22.690Z,5.10
2023-05-05T00:31:53.251Z,4.65
2023-05-05T00:34:20.766Z,4.72
2023-05-05T00:36:48.619Z,4.70
2023-05-05T00:39:16.885Z,5.07
2023-05-05T00:41:44.232Z,4.70
2023-05-05T00:44:11.731Z,5.03
2023-05-05T00:46:40.714Z,4.40
2023-05-05T00:49:07.967Z,4.50
2023-05-05T00:51:35.424Z,4.60
2023-05-05T00:54:02.968Z,4.50
2023-05-05T00:56:30.548Z,5.07
2023-05-05T00:58:59.342Z,5.18
2023-05-05T01:01:26.571Z,4.78
2023-05-05T01:03:53.822Z,4.15
2023-05-05T01:06:23.857Z,4.55
2023-05-05T01:09:24.719Z,4.40
2023-05-05T01:12:08.293Z,4.05
2023-05-05T01:14:44.310Z,3.92
2023-05-05T01:17:17.450Z,4.25
2023-05-05T01:20:01.674Z,3.42
2023-05-05T01:22:40.456Z,3.75
2023-05-05T01:25:39.483Z,4.20
2023-05-05T01:28:09.637Z,3.65
2023-05-05T01:31:14.619Z,3.33
2023-05-05T01:33:50.112Z,4.07
2023-05-05T01:36:24.319Z,5.45
2023-05-05T01:38:58.260Z,3.72
2023-05-05T01:41:32.144Z,3.95
2023-05-05T01:44:03.343Z,4.82
2023-05-05T01:46:30.725Z,4.82
2023-05-05T01:48:59.316Z,4.10
2023-05-05T01:51:28.107Z,4.15
2023-05-05T01:53:59.316Z,4.32
2023-05-05T01:56:28.402Z,3.65
2023-05-05T01:58:56.367Z,3.42
2023-05-05T02:01:26.649Z,3.30
2023-05-05T02:03:57.040Z,3.50
2023-05-05T02:06:27.091Z,3.85
2023-05-05T02:08:55.769Z,3.58
2023-05-05T02:11:24.143Z,3.25
2023-05-05T02:13:51.634Z,2.92
2023-05-05T02:16:20.448Z,2.95
2023-05-05T02:18:48.723Z,3.17
2023-05-05T02:21:18.285Z,4.38
2023-05-05T02:23:51.658Z,3.63
2023-05-05T02:26:22.097Z,3.78
2023-05-05T02:28:58.698Z,3.60
2023-05-05T02:31:27.729Z,3.88
2023-05-05T02:33:58.111Z,3.50
2023-05-05T02:36:29.960Z,4.78
2023-05-05T02:39:04.855Z,5.45
2023-05-05T02:41:39.650Z,5.35
2023-05-05T02:44:16.012Z,4.25
2023-05-05T02:46:43.831Z,5.35
2023-05-05T02:49:11.092Z,4.82
2023-05-05T02:51:39.819Z,4.68
2023-05-05T02:54:16.732Z,4.93
2023-05-05T02:56:51.187Z,5.35
2023-05-05T02:59:25.093Z,5.38
2023-05-05T03:02:14.035Z,4.97
2023-05-05T03:04:54.315Z,5.15
2023-05-05T03:07:27.835Z,5.93
2023-05-05T03:10:06.483Z,6.40
2023-05-05T03:12:48.562Z,7.72
2023-05-05T03:15:41.556Z,8.00
2023-05-05T03:18:13.246Z,8.10
2023-05-05T03:20:44.466Z,7.28
2023-05-05T03:23:14.721Z,7.97
2023-05-05T03:25:46.140Z,9.30
2023-05-05T03:28:22.006Z,8.82
2023-05-05T03:30:49.257Z,7.75
2023-05-05T03:33:19.475Z,9.33
2023-05-05T03:35:50.729Z,7.10
2023-05-05T03:38:18.758Z,8.50
2023-05-05T03:40:46.404Z,7.93
2023-05-05T03:43:17.618Z,7.10
2023-05-05T03:45:44.745Z,7.22
2023-05-05T03:48:12.323Z,7.22
2023-05-05T03:50:41.262Z,7.93
2023-05-05T03:53:09.241Z,7.90
2023-05-05T03:55:37.111Z,7.70
2023-05-05T03:58:04.173Z,7.57
2023-05-05T04:00:32.306Z,7.68
2023-05-05T04:02:59.999Z,7.43
2023-05-05T04:05:27.244Z,6.50
2023-05-05T04:07:54.158Z,5.30
2023-05-05T04:10:21.723Z,5.43
2023-05-05T04:12:49.047Z,5.70
2023-05-05T04:15:16.652Z,6.55
2023-05-05T04:17:44.295Z,7.53
2023-05-05T04:20:11.727Z,6.47
2023-05-05T04:22:39.613Z,5.85
2023-05-05T04:25:07.669Z,6.57
2023-05-05T04:27:34.911Z,8.13
2023-05-05T04:30:02.227Z,7.47
2023-05-05T04:32:31.181Z,7.35
2023-05-05T04:34:58.885Z,7.82
2023-05-05T04:37:26.907Z,8.32
2023-05-05T04:39:54.107Z,6.72
2023-05-05T04:42:21.534Z,6.50
2023-05-05T04:44:48.558Z,5.72
2023-05-05T04:47:15.609Z,6.38
2023-05-05T04:49:43.629Z,5.38
2023-05-05T04:52:13.518Z,5.57
2023-05-05T04:54:40.572Z,4.90
2023-05-05T04:57:08.088Z,5.00
2023-05-05T04:59:36.960Z,4.68
2023-05-05T05:02:04.526Z,4.65
2023-05-05T05:04:31.726Z,4.60
2023-05-05T05:06:59.465Z,4.28
2023-05-05T05:09:27.651Z,3.97
2023-05-05T05:11:54.667Z,4.20
2023-05-05T05:14:21.966Z,4.45
2023-05-05T05:16:52.589Z,4.30
2023-05-05T05:19:22.000Z,4.32
2023-05-05T05:21:49.122Z,4.28
2023-05-05T05:24:16.404Z,4.20
2023-05-05T05:26:43.946Z,4.00
2023-05-05T05:29:11.376Z,4.05
2023-05-05T05:31:40.020Z,3.97
2023-05-05T05:34:07.930Z,3.42
2023-05-05T05:36:36.617Z,3.60
2023-05-05T05:39:03.873Z,3.08
2023-05-05T05:41:30.975Z,3.55
2023-05-05T05:44:01.521Z,3.00
2023-05-05T05:46:29.733Z,3.05
2023-05-05T05:48:57.872Z,3.20
2023-05-05T05:51:25.649Z,3.50
2023-05-05T05:53:53.003Z,3.20
2023-05-05T05:56:20.068Z,2.92
2023-05-05T05:58:48.808Z,3.15
2023-05-05T06:01:19.202Z,3.13
2023-05-05T06:03:47.147Z,3.03
2023-05-05T06:06:14.360Z,2.60
2023-05-05T06:08:41.421Z,2.85
2023-05-05T06:11:08.359Z,2.70
2023-05-05T06:13:35.479Z,3.20
2023-05-05T06:16:02.557Z,2.67
2023-05-05T06:18:29.564Z,3.47
2023-05-05T06:20:56.562Z,3.42
2023-05-05T06:23:27.392Z,3.80
2023-05-05T06:26:00.273Z,3.42
2023-05-05T06:28:27.341Z,2.97
2023-05-05T06:30:54.789Z,2.90
2023-05-05T06:33:21.907Z,3.60
2023-05-05T06:35:49.681Z,3.03
2023-05-05T06:38:16.680Z,2.85
2023-05-05T06:40:43.675Z,2.67
2023-05-05T06:43:11.244Z,3.00
2023-05-05T06:45:44.959Z,2.70
2023-05-05T06:48:12.475Z,2.90
2023-05-05T06:50:39.457Z,3.20
2023-05-05T06:53:06.690Z,3.10
2023-05-05T06:55:33.814Z,2.92
2023-05-05T06:58:01.010Z,3.10
2023-05-05T07:00:28.079Z,2.92
2023-05-05T07:02:55.247Z,2.90
2023-05-05T07:05:22.469Z,2.60
2023-05-05T07:07:53.854Z,2.70
2023-05-05T07:10:22.651Z,3.10
2023-05-05T07:12:51.705Z,2.90
2023-05-05T07:15:27.490Z,2.75
2023-05-05T07:17:56.645Z,3.13
2023-05-05T07:20:24.354Z,3.10
2023-05-05T07:22:51.576Z,3.22
2023-05-05T07:25:18.698Z,2.72
2023-05-05T07:27:45.755Z,2.60
2023-05-05T07:30:15.555Z,2.80
2023-05-05T07:32:44.538Z,3.15
2023-05-05T07:35:11.869Z,2.90
2023-05-05T07:37:38.878Z,3.53
2023-05-05T07:40:06.653Z,3.08
2023-05-05T07:42:33.813Z,2.90
2023-05-05T07:45:00.899Z,3.22
2023-05-05T07:47:27.879Z,2.95
2023-05-05T07:49:55.041Z,3.13
2023-05-05T07:52:33.173Z,2.95
2023-05-05T07:55:05.056Z,3.00
2023-05-05T07:57:32.019Z,2.90
2023-05-05T07:59:59.024Z,3.15
2023-05-05T08:02:26.131Z,3.15
2023-05-05T08:04:53.071Z,2.97
2023-05-05T08:07:20.215Z,2.90
2023-05-05T08:09:47.182Z,3.03
2023-05-05T08:12:15.323Z,3.00
2023-05-05T08:14:42.651Z,2.90
2023-05-05T08:17:09.622Z,3.50
2023-05-05T08:19:36.824Z,3.55
2023-05-05T08:22:04.026Z,3.55
2023-05-05T08:24:31.315Z,3.00
2023-05-05T08:26:58.266Z,3.42
2023-05-05T08:29:25.324Z,3.30
2023-05-05T08:31:53.100Z,3.10
2023-05-05T08:34:20.273Z,3.08
2023-05-05T08:36:49.188Z,3.60
2023-05-05T08:39:16.672Z,3.20
2023-05-05T08:41:43.792Z,3.60
2023-05-05T08:44:11.400Z,3.17
2023-05-05T08:46:39.847Z,5.22
2023-05-05T08:49:13.338Z,3.22
2023-05-05T08:51:44.354Z,3.63
2023-05-05T08:54:18.440Z,3.17
2023-05-05T08:56:47.287Z,2.92
2023-05-05T08:59:15.849Z,3.00
2023-05-05T09:01:44.441Z,3.15
2023-05-05T09:04:11.723Z,3.60
2023-05-05T09:06:38.927Z,3.33
2023-05-05T09:09:06.862Z,3.40
2023-05-05T09:11:35.401Z,3.00
2023-05-05T09:14:02.485Z,3.60
2023-05-05T09:16:29.810Z,3.42
2023-05-05T09:19:06.092Z,3.60
2023-05-05T09:21:33.604Z,3.28
2023-05-05T09:24:09.411Z,3.40
2023-05-05T09:26:39.745Z,3.28
2023-05-05T09:29:06.979Z,3.13
2023-05-05T09:31:36.445Z,3.28
2023-05-05T09:34:15.105Z,3.40
2023-05-05T09:36:50.207Z,3.22
2023-05-05T09:39:19.897Z,3.47
2023-05-05T09:41:47.410Z,3.88
2023-05-05T09:44:17.448Z,3.20
2023-05-05T09:46:55.462Z,2.80
2023-05-05T09:49:25.620Z,2.97
2023-05-05T09:51:54.933Z,3.00
2023-05-05T09:54:29.083Z,3.03
2023-05-05T09:56:59.210Z,3.65
2023-05-05T09:59:26.334Z,3.60
2023-05-05T10:01:53.814Z,3.30
2023-05-05T10:04:28.668Z,3.25
2023-05-05T10:06:59.509Z,3.50
2023-05-05T10:09:28.228Z,4.10
2023-05-05T10:11:58.054Z,3.67
2023-05-05T10:14:25.964Z,3.65
2023-05-05T10:16:55.148Z,3.55
2023-05-05T10:19:24.004Z,3.80
2023-05-05T10:22:02.212Z,3.42
2023-05-05T10:24:39.134Z,3.63
2023-05-05T10:27:34.828Z,3.53
2023-05-05T10:30:07.570Z,3.55
2023-05-05T10:37:44.833Z,2.90
2023-05-05T10:40:13.940Z,3.35
2023-05-05T10:42:41.634Z,2.67
2023-05-05T10:45:09.696Z,2.90
2023-05-05T10:47:40.402Z,2.70
2023-05-05T10:50:21.695Z,3.25
2023-05-05T10:53:11.200Z,2.88
2023-05-05T10:56:02.452Z,3.10
2023-05-05T10:58:55.570Z,2.72
2023-05-05T11:01:33.822Z,3.20
2023-05-05T11:04:22.946Z,2.72
2023-05-05T11:07:09.802Z,3.30
2023-05-05T11:09:55.774Z,3.08
2023-05-05T11:12:23.101Z,2.55
2023-05-05T11:15:28.567Z,3.10
2023-05-05T11:17:59.766Z,2.78
2023-05-05T11:20:39.948Z,2.88
2023-05-05T11:23:07.622Z,3.10
2023-05-05T11:25:40.925Z,3.00
2023-05-05T11:28:09.657Z,3.63
2023-05-05T11:30:57.549Z,3.28
2023-05-05T11:33:40.039Z,2.90
2023-05-05T11:36:08.956Z,2.88
2023-05-05T11:39:07.351Z,2.95
2023-05-05T11:41:40.326Z,3.10
2023-05-05T11:44:14.279Z,3.05
2023-05-05T11:47:04.327Z,3.05
2023-05-05T11:49:36.939Z,3.17
2023-05-05T11:52:06.442Z,3.10
2023-05-05T11:54:36.626Z,3.00
2023-05-05T11:57:08.475Z,2.83
2023-05-05T11:59:37.555Z,3.20
2023-05-05T12:02:05.430Z,3.37
2023-05-05T12:04:32.843Z,3.60
2023-05-05T12:07:00.420Z,2.63
2023-05-05T12:09:27.876Z,3.03
2023-05-05T12:11:57.132Z,2.40
2023-05-05T12:14:25.743Z,2.50
2023-05-05T12:17:08.849Z,2.42
2023-05-05T12:19:36.537Z,2.47
2023-05-05T12:22:05.031Z,2.28
2023-05-05T12:24:32.597Z,2.20
2023-05-05T12:27:10.717Z,2.10
2023-05-05T12:29:38.208Z,2.58
2023-05-05T12:32:05.819Z,2.75
2023-05-05T12:34:33.428Z,1.90
2023-05-05T12:37:01.311Z,1.90
2023-05-05T12:39:36.450Z,2.28
2023-05-05T12:42:06.704Z,2.20
2023-05-05T12:44:38.142Z,2.42
2023-05-05T12:47:07.323Z,2.30
2023-05-05T12:49:54.660Z,2.15
2023-05-05T12:52:21.847Z,2.80
2023-05-05T12:54:59.408Z,2.70
2023-05-05T12:57:26.733Z,2.97
2023-05-05T12:59:53.925Z,2.90
2023-05-05T13:02:21.602Z,2.20
2023-05-05T13:04:53.407Z,2.55
2023-05-05T13:07:22.335Z,2.53
2023-05-05T13:09:51.202Z,2.50
2023-05-05T13:12:18.957Z,2.40
2023-05-05T13:14:46.964Z,2.30
2023-05-05T13:17:14.870Z,2.00
2023-05-05T13:19:46.056Z,1.85
2023-05-05T13:22:14.096Z,2.05
2023-05-05T13:24:51.592Z,2.05
2023-05-05T13:27:20.865Z,1.98
2023-05-05T13:29:48.191Z,2.00
2023-05-05T13:32:15.504Z,2.25
2023-05-05T13:34:43.662Z,2.10
2023-05-05T13:37:10.827Z,2.42
2023-05-05T13:39:37.948Z,2.30
2023-05-05T13:42:05.158Z,2.33
2023-05-05T13:44:32.315Z,2.50
2023-05-05T13:46:59.609Z,2.20
2023-05-05T13:49:27.194Z,2.63
2023-05-05T13:51:55.259Z,2.20
2023-05-05T13:54:22.518Z,2.30
2023-05-05T13:56:49.707Z,1.95
2023-05-05T13:59:16.748Z,1.70
2023-05-05T14:01:44.018Z,2.00
2023-05-05T14:04:11.246Z,2.42
2023-05-05T14:06:38.589Z,1.90
2023-05-05T14:09:06.530Z,2.60
2023-05-05T14:11:33.888Z,1.95
2023-05-05T14:14:01.776Z,2.15
2023-05-05T14:16:29.148Z,2.70
2023-05-05T14:18:56.211Z,2.17
2023-05-05T14:21:23.356Z,2.22
2023-05-05T14:23:50.504Z,2.30
2023-05-05T14:26:18.196Z,2.40
2023-05-05T14:28:47.278Z,2.15
2023-05-05T14:31:16.052Z,2.17
2023-05-05T14:33:43.261Z,2.17
2023-05-05T14:36:10.568Z,2.10
2023-05-05T14:38:37.562Z,2.17
2023-05-05T14:41:04.849Z,2.42
2023-05-05T14:43:32.055Z,2.30
2023-05-05T14:46:01.020Z,2.35
2023-05-05T14:48:28.488Z,2.20
2023-05-05T14:50:55.662Z,2.55
2023-05-05T14:53:22.728Z,2.42
2023-05-05T14:55:49.910Z,4.30
2023-05-05T14:58:18.928Z,2.50
2023-05-05T15:00:45.990Z,2.50
2023-05-05T15:03:13.214Z,2.80
2023-05-05T15:05:40.585Z,3.05
2023-05-05T15:08:07.854Z,3.42
2023-05-05T15:10:35.031Z,3.10
2023-05-05T15:13:02.354Z,3.15
2023-05-05T15:15:29.430Z,3.28
2023-05-05T15:17:56.704Z,2.92
2023-05-05T15:20:23.978Z,2.80
2023-05-05T15:22:51.024Z,3.17
2023-05-05T15:25:19.386Z,2.60
2023-05-05T15:27:47.360Z,2.70
2023-05-05T15:30:14.786Z,2.72
2023-05-05T15:32:42.155Z,2.65
2023-05-05T15:35:09.630Z,2.47
2023-05-05T15:37:38.227Z,2.92
2023-05-05T15:40:05.936Z,2.50
2023-05-05T15:42:34.092Z,2.83
2023-05-05T15:45:02.016Z,2.58
2023-05-05T15:47:33.137Z,2.42
2023-05-05T15:50:00.606Z,2.72
2023-05-05T15:52:27.915Z,2.25
2023-05-05T15:54:55.080Z,3.13
2023-05-05T15:57:22.229Z,2.45
2023-05-05T15:59:53.159Z,2.60
2023-05-05T16:02:21.576Z,2.40
2023-05-05T16:04:48.723Z,2.40
2023-05-05T16:07:15.860Z,2.70
2023-05-05T16:09:43.199Z,2.90
2023-05-05T16:12:14.102Z,2.45
2023-05-05T16:14:41.220Z,2.30
2023-05-05T16:17:09.197Z,2.22
2023-05-05T16:19:36.398Z,2.20
2023-05-05T16:22:03.453Z,3.30
2023-05-05T16:24:32.211Z,2.53
2023-05-05T16:26:59.283Z,2.53
2023-05-05T16:29:26.880Z,3.10
2023-05-05T16:31:54.032Z,2.53
2023-05-05T16:34:21.165Z,2.70
2023-05-05T16:36:48.234Z,1.98
2023-05-05T16:39:15.356Z,2.53
2023-05-05T16:41:42.415Z,2.88
2023-05-05T16:44:09.653Z,2.53
2023-05-05T16:46:37.802Z,3.15
2023-05-05T16:49:04.956Z,2.85
2023-05-05T16:51:32.274Z,3.45
2023-05-05T16:53:59.329Z,4.65
2023-05-05T16:56:26.640Z,4.35
2023-05-05T16:58:53.846Z,4.53
2023-05-05T17:01:21.144Z,4.70
2023-05-05T17:03:48.427Z,4.20
2023-05-05T17:06:15.507Z,4.40
2023-05-05T17:08:42.962Z,3.90
2023-05-05T17:11:11.762Z,3.95
2023-05-05T17:13:39.218Z,3.42
2023-05-05T17:16:06.688Z,3.72
2023-05-05T17:18:33.934Z,4.32
2023-05-05T17:21:01.076Z,4.20
2023-05-05T17:23:28.219Z,4.55
2023-05-05T17:25:55.257Z,3.80
2023-05-05T17:28:22.616Z,3.85
2023-05-05T17:30:49.769Z,3.63
2023-05-05T17:33:21.564Z,3.97
2023-05-05T17:35:48.745Z,17.77
2023-05-05T17:38:16.267Z,7.47
2023-05-05T17:40:43.505Z,7.63
2023-05-05T17:43:10.576Z,5.13
2023-05-05T17:45:37.842Z,4.90
2023-05-05T17:48:05.727Z,3.45
2023-05-05T17:50:32.925Z,5.15
2023-05-05T17:53:00.162Z,3.55
2023-05-05T17:55:28.006Z,4.32
2023-05-05T17:57:57.298Z,9.45
2023-05-05T18:00:24.506Z,4.45
2023-05-05T18:02:51.582Z,3.70
2023-05-05T18:05:18.765Z,4.85
2023-05-05T18:07:45.858Z,4.28
2023-05-05T18:10:13.064Z,3.70
2023-05-05T18:12:40.286Z,5.80
2023-05-05T18:15:09.062Z,4.55
2023-05-05T18:17:37.513Z,3.90
2023-05-05T18:20:07.021Z,5.68
2023-05-05T18:22:34.666Z,5.95
2023-05-05T18:25:01.912Z,5.47
2023-05-05T18:27:36.084Z,5.60
2023-05-05T18:30:05.015Z,4.00
2023-05-05T18:32:34.109Z,3.85
2023-05-05T18:35:01.368Z,4.35
2023-05-05T18:37:28.624Z,4.20
2023-05-05T18:39:56.009Z,4.25
2023-05-05T18:42:23.288Z,4.82
2023-05-05T18:44:50.420Z,4.07
2023-05-05T18:47:17.613Z,4.72
2023-05-05T18:49:45.560Z,4.18
2023-05-05T18:52:13.804Z,4.00
2023-05-05T18:54:41.198Z,3.90
2023-05-05T18:57:09.451Z,4.45
2023-05-05T19:02:20.353Z,4.03
2023-05-05T19:04:47.547Z,4.43
2023-05-05T19:07:27.665Z,4.35
2023-05-05T19:10:01.296Z,4.10
2023-05-05T19:12:30.768Z,3.70
2023-05-05T19:14:58.044Z,4.13
2023-05-05T19:17:25.446Z,7.40
2023-05-05T19:19:52.599Z,5.07
2023-05-05T19:22:20.846Z,4.45
2023-05-05T19:24:48.042Z,4.72
2023-05-05T19:27:17.039Z,4.00
2023-05-05T19:29:44.661Z,4.50
2023-05-05T19:32:11.866Z,4.22
2023-05-05T19:34:39.179Z,4.45
2023-05-05T19:37:06.433Z,4.53
2023-05-05T19:39:33.549Z,3.88
2023-05-05T19:42:01.076Z,4.47
2023-05-05T19:44:28.233Z,4.63
2023-05-05T19:46:55.410Z,4.88
2023-05-05T19:49:22.820Z,4.45
2023-05-05T19:51:52.229Z,4.78
2023-05-05T19:54:19.326Z,5.07
2023-05-05T19:56:46.386Z,5.32
2023-05-05T19:59:13.667Z,5.10
2023-05-05T20:01:40.969Z,5.20
2023-05-05T20:04:08.151Z,5.90
2023-05-05T20:06:36.369Z,5.45
2023-05-05T20:09:04.666Z,6.20
2023-05-05T20:11:32.110Z,6.03
2023-05-05T20:13:59.576Z,5.93
2023-05-05T20:16:26.999Z,6.00
2023-05-05T20:18:54.223Z,5.53
2023-05-05T20:21:21.372Z,5.10
2023-05-05T20:23:48.631Z,4.85
2023-05-05T20:26:15.883Z,5.20
2023-05-05T20:28:45.296Z,4.72
2023-05-05T20:31:14.634Z,5.07
2023-05-05T20:33:41.971Z,5.10
2023-05-05T20:36:09.602Z,5.35
2023-05-05T20:38:39.053Z,5.45
2023-05-05T20:41:06.563Z,4.20
2023-05-05T20:43:34.046Z,4.35
2023-05-05T20:46:01.292Z,3.97
2023-05-05T20:48:29.519Z,3.97
2023-05-05T20:50:57.383Z,4.05
2023-05-05T20:53:25.576Z,4.55
2023-05-05T20:55:52.773Z,3.95
2023-05-05T20:58:19.868Z,3.50
2023-05-05T21:00:47.379Z,3.45
2023-05-05T21:03:14.651Z,3.55
2023-05-05T21:05:41.692Z,3.40
2023-05-05T21:08:09.022Z,3.05
2023-05-05T21:10:36.602Z,5.25
2023-05-05T21:13:05.005Z,2.67
2023-05-05T21:15:32.194Z,2.97
2023-05-05T21:17:59.480Z,2.60
2023-05-05T21:20:27.050Z,2.63
2023-05-05T21:22:54.137Z,2.50
2023-05-05T21:25:21.686Z,2.38
2023-05-05T21:27:49.281Z,2.42
2023-05-05T21:30:17.340Z,2.40
2023-05-05T21:32:45.010Z,2.33
2023-05-05T21:35:12.561Z,1.92
2023-05-05T21:37:40.156Z,2.05
2023-05-05T21:40:13.872Z,2.30
2023-05-05T21:42:42.174Z,1.88
2023-05-05T21:45:11.134Z,2.45
2023-05-05T21:47:38.144Z,2.35
2023-05-05T21:50:05.690Z,2.75
2023-05-05T21:52:32.928Z,2.53
2023-05-05T21:55:00.188Z,2.40
2023-05-05T21:57:27.412Z,2.25
2023-05-05T21:59:54.460Z,2.13
2023-05-05T22:02:21.588Z,2.33
2023-05-05T22:04:51.377Z,2.28
2023-05-05T22:07:18.528Z,2.00
2023-05-05T22:09:46.094Z,2.00
2023-05-05T22:12:13.287Z,2.25
2023-05-05T22:14:40.320Z,2.40
2023-05-05T22:17:07.430Z,2.03
2023-05-05T22:19:34.458Z,2.10
2023-05-05T22:22:01.698Z,2.40
2023-05-05T22:24:29.763Z,1.90
2023-05-05T22:26:57.450Z,2.13
2023-05-05T22:29:25.341Z,1.90
2023-05-05T22:31:52.953Z,1.77
2023-05-05T22:34:21.971Z,1.92
2023-05-05T22:36:49.971Z,1.77
2023-05-05T22:39:18.659Z,1.92
2023-05-05T22:41:45.938Z,1.90
2023-05-05T22:44:13.083Z,2.00
2023-05-05T22:46:41.000Z,1.83
2023-05-05T22:49:08.129Z,1.60
2023-05-05T22:51:35.311Z,1.60
2023-05-05T22:54:02.426Z,1.58
2023-05-05T22:56:29.535Z,1.65
2023-05-05T22:58:56.663Z,1.85
2023-05-05T23:01:24.078Z,1.58
2023-05-05T23:03:51.231Z,1.30
2023-05-05T23:06:18.337Z,1.83
2023-05-05T23:08:46.256Z,1.67
2023-05-05T23:11:13.305Z,1.95
2023-05-05T23:13:40.313Z,1.90
2023-05-05T23:16:07.583Z,2.00
2023-05-05T23:18:36.754Z,1.90
2023-05-05T23:21:04.138Z,1.67
2023-05-05T23:23:31.328Z,1.90
2023-05-05T23:25:58.419Z,1.60
2023-05-05T23:28:25.560Z,1.90
2023-05-05T23:30:52.698Z,1.90
2023-05-05T23:33:19.863Z,1.98
2023-05-05T23:35:47.223Z,1.83
2023-05-05T23:38:14.124Z,2.58
2023-05-05T23:40:41.114Z,2.00
2023-05-05T23:43:08.191Z,1.90
2023-05-05T23:45:35.265Z,2.10
2023-05-05T23:48:02.404Z,1.80
2023-05-05T23:50:30.459Z,1.90
2023-05-05T23:52:57.647Z,2.20
2023-05-05T23:55:24.703Z,2.15
2023-05-05T23:57:53.176Z,1.98
